sensor_id;sensor_type;location;lat;lon;timestamp;P1;durP1;ratioP1;P2;durP2;ratioP2
25199;SDS011;33094;48.782;9.162;2023-03-09T01:11:27;0.65;;;0.40;;
25199;SDS011;33094;48.782;9.162;2023-03-09T01:14:10;2.63;;;0.60;;
25199;SDS011;33094;48.782;9.162;2023-03-09T01:16:40;5.05;;;0.30;;
25199;SDS011;33094;48.782;9.162;2023-03-09T01:22:04;0.60;;;0.30;;
25199;SDS011;33094;48.782;9.162;2023-03-09T01:24:48;0.38;;;0.10;;
25199;SDS011;33094;48.782;9.162;2023-03-09T01:27:49;0.28;;;0.15;;
25199;SDS011;33094;48.782;9.162;2023-03-09T01:33:14;0.28;;;0.15;;
25199;SDS011;33094;48.782;9.162;2023-03-09T01:55:38;5.40;;;0.88;;
25199;SDS011;33094;48.782;9.162;2023-03-09T02:18:31;0.43;;;0.05;;
25199;SDS011;33094;48.782;9.162;2023-03-09T04:03:35;0.80;;;0.38;;
25199;SDS011;33094;48.782;9.162;2023-03-09T04:06:13;3.88;;;0.77;;
25199;SDS011;33094;48.782;9.162;2023-03-09T04:08:45;0.93;;;0.35;;
25199;SDS011;33094;48.782;9.162;2023-03-09T04:13:48;3.05;;;0.80;;
25199;SDS011;33094;48.782;9.162;2023-03-09T04:32:27;5.70;;;1.02;;
25199;SDS011;33094;48.782;9.162;2023-03-09T05:07:35;7.07;;;1.63;;
25199;SDS011;33094;48.782;9.162;2023-03-09T05:10:02;8.27;;;1.25;;
25199;SDS011;33094;48.782;9.162;2023-03-09T05:12:30;14.38;;;2.20;;
25199;SDS011;33094;48.782;9.162;2023-03-09T05:15:33;15.10;;;1.75;;
25199;SDS011;33094;48.782;9.162;2023-03-09T05:18:02;12.13;;;2.15;;
25199;SDS011;33094;48.782;9.162;2023-03-09T05:26:59;4.43;;;1.52;;
25199;SDS011;33094;48.782;9.162;2023-03-09T05:29:31;8.55;;;1.92;;
25199;SDS011;33094;48.782;9.162;2023-03-09T05:42:12;18.83;;;2.30;;
25199;SDS011;33094;48.782;9.162;2023-03-09T05:44:43;8.20;;;1.63;;
25199;SDS011;33094;48.782;9.162;2023-03-09T05:47:17;8.27;;;1.48;;
25199;SDS011;33094;48.782;9.162;2023-03-09T05:52:15;3.72;;;1.65;;
25199;SDS011;33094;48.782;9.162;2023-03-09T05:54:59;7.78;;;1.25;;
25199;SDS011;33094;48.782;9.162;2023-03-09T05:57:27;8.13;;;1.45;;
25199;SDS011;33094;48.782;9.162;2023-03-09T05:59:56;8.95;;;1.70;;
25199;SDS011;33094;48.782;9.162;2023-03-09T06:02:24;13.52;;;1.75;;
25199;SDS011;33094;48.782;9.162;2023-03-09T06:04:50;12.82;;;1.88;;
25199;SDS011;33094;48.782;9.162;2023-03-09T06:07:16;5.93;;;1.50;;
25199;SDS011;33094;48.782;9.162;2023-03-09T06:09:42;8.05;;;2.22;;
25199;SDS011;33094;48.782;9.162;2023-03-09T06:12:09;11.38;;;1.98;;
25199;SDS011;33094;48.782;9.162;2023-03-09T06:14:35;8.95;;;2.13;;
25199;SDS011;33094;48.782;9.162;2023-03-09T06:17:01;7.15;;;1.67;;
25199;SDS011;33094;48.782;9.162;2023-03-09T06:19:31;6.07;;;2.10;;
25199;SDS011;33094;48.782;9.162;2023-03-09T06:21:56;7.75;;;2.20;;
25199;SDS011;33094;48.782;9.162;2023-03-09T06:24:22;10.77;;;2.13;;
25199;SDS011;33094;48.782;9.162;2023-03-09T06:29:49;11.77;;;2.50;;
25199;SDS011;33094;48.782;9.162;2023-03-09T06:32:14;12.25;;;2.08;;
25199;SDS011;33094;48.782;9.162;2023-03-09T06:34:40;11.75;;;2.28;;
25199;SDS011;33094;48.782;9.162;2023-03-09T06:37:06;6.07;;;1.88;;
25199;SDS011;33094;48.782;9.162;2023-03-09T06:39:36;10.10;;;2.22;;
25199;SDS011;33094;48.782;9.162;2023-03-09T06:42:02;9.95;;;1.67;;
25199;SDS011;33094;48.782;9.162;2023-03-09T06:44:28;16.60;;;2.60;;
25199;SDS011;33094;48.782;9.162;2023-03-09T06:46:54;10.70;;;2.15;;
25199;SDS011;33094;48.782;9.162;2023-03-09T06:49:19;11.07;;;2.17;;
25199;SDS011;33094;48.782;9.162;2023-03-09T06:51:45;9.40;;;2.05;;
25199;SDS011;33094;48.782;9.162;2023-03-09T06:54:22;8.30;;;2.10;;
25199;SDS011;33094;48.782;9.162;2023-03-09T06:56:48;4.32;;;1.58;;
25199;SDS011;33094;48.782;9.162;2023-03-09T06:59:15;8.23;;;1.88;;
25199;SDS011;33094;48.782;9.162;2023-03-09T07:01:41;5.80;;;1.67;;
25199;SDS011;33094;48.782;9.162;2023-03-09T07:04:06;16.50;;;1.50;;
25199;SDS011;33094;48.782;9.162;2023-03-09T07:06:34;6.35;;;1.20;;
25199;SDS011;33094;48.782;9.162;2023-03-09T07:09:03;8.75;;;1.50;;
25199;SDS011;33094;48.782;9.162;2023-03-09T07:24:42;5.80;;;1.33;;
25199;SDS011;33094;48.782;9.162;2023-03-09T07:45:22;12.20;;;2.10;;
25199;SDS011;33094;48.782;9.162;2023-03-09T07:47:49;9.10;;;2.10;;
25199;SDS011;33094;48.782;9.162;2023-03-09T08:05:52;8.82;;;1.50;;
25199;SDS011;33094;48.782;9.162;2023-03-09T08:08:21;11.52;;;1.80;;
25199;SDS011;33094;48.782;9.162;2023-03-09T08:19:01;10.23;;;1.63;;
25199;SDS011;33094;48.782;9.162;2023-03-09T08:21:28;6.85;;;1.77;;
25199;SDS011;33094;48.782;9.162;2023-03-09T08:42:45;8.52;;;1.10;;
25199;SDS011;33094;48.782;9.162;2023-03-09T08:55:36;6.22;;;1.30;;
25199;SDS011;33094;48.782;9.162;2023-03-09T09:00:48;9.73;;;1.58;;
25199;SDS011;33094;48.782;9.162;2023-03-09T09:03:16;4.10;;;1.77;;
25199;SDS011;33094;48.782;9.162;2023-03-09T09:05:46;6.35;;;1.88;;
25199;SDS011;33094;48.782;9.162;2023-03-09T09:08:33;5.70;;;1.80;;
25199;SDS011;33094;48.782;9.162;2023-03-09T09:31:43;5.47;;;1.30;;
25199;SDS011;33094;48.782;9.162;2023-03-09T09:34:10;3.55;;;1.08;;
25199;SDS011;33094;48.782;9.162;2023-03-09T09:36:46;6.50;;;1.70;;
25199;SDS011;33094;48.782;9.162;2023-03-09T09:39:12;1.33;;;0.90;;
25199;SDS011;33094;48.782;9.162;2023-03-09T09:51:57;3.63;;;1.20;;
25199;SDS011;33094;48.782;9.162;2023-03-09T10:23:33;4.97;;;1.25;;
25199;SDS011;33094;48.782;9.162;2023-03-09T10:28:49;3.50;;;1.05;;
25199;SDS011;33094;48.782;9.162;2023-03-09T10:36:31;7.35;;;1.35;;
25199;SDS011;33094;48.782;9.162;2023-03-09T10:41:43;3.63;;;0.77;;
25199;SDS011;33094;48.782;9.162;2023-03-09T10:57:27;4.20;;;1.40;;
25199;SDS011;33094;48.782;9.162;2023-03-09T11:10:28;4.18;;;1.02;;
25199;SDS011;33094;48.782;9.162;2023-03-09T11:12:56;4.43;;;1.20;;
25199;SDS011;33094;48.782;9.162;2023-03-09T11:18:02;5.20;;;1.25;;
25199;SDS011;33094;48.782;9.162;2023-03-09T12:20:18;7.03;;;1.20;;
25199;SDS011;33094;48.782;9.162;2023-03-09T13:21:29;4.88;;;1.08;;
25199;SDS011;33094;48.782;9.162;2023-03-09T13:27:23;7.10;;;1.42;;
25199;SDS011;33094;48.782;9.162;2023-03-09T13:38:33;2.13;;;1.00;;
25199;SDS011;33094;48.782;9.162;2023-03-09T13:50:19;1.70;;;0.80;;
25199;SDS011;33094;48.782;9.162;2023-03-09T13:53:29;3.63;;;1.20;;
25199;SDS011;33094;48.782;9.162;2023-03-09T13:56:15;4.53;;;0.90;;
25199;SDS011;33094;48.782;9.162;2023-03-09T13:58:46;3.63;;;1.08;;
25199;SDS011;33094;48.782;9.162;2023-03-09T14:01:27;7.35;;;1.38;;
25199;SDS011;33094;48.782;9.162;2023-03-09T14:07:54;11.68;;;1.75;;
25199;SDS011;33094;48.782;9.162;2023-03-09T14:13:04;6.05;;;1.38;;
25199;SDS011;33094;48.782;9.162;2023-03-09T14:15:39;5.07;;;1.50;;
25199;SDS011;33094;48.782;9.162;2023-03-09T14:18:06;6.32;;;1.58;;
25199;SDS011;33094;48.782;9.162;2023-03-09T14:24:41;10.63;;;1.40;;
25199;SDS011;33094;48.782;9.162;2023-03-09T14:27:13;5.55;;;1.40;;
25199;SDS011;33094;48.782;9.162;2023-03-09T14:29:45;2.40;;;1.02;;
25199;SDS011;33094;48.782;9.162;2023-03-09T14:32:27;4.55;;;1.50;;
25199;SDS011;33094;48.782;9.162;2023-03-09T14:44:26;8.90;;;1.95;;
25199;SDS011;33094;48.782;9.162;2023-03-09T14:46:54;6.20;;;1.58;;
25199;SDS011;33094;48.782;9.162;2023-03-09T14:50:05;4.93;;;1.45;;
25199;SDS011;33094;48.782;9.162;2023-03-09T14:52:39;4.75;;;1.13;;
25199;SDS011;33094;48.782;9.162;2023-03-09T14:55:19;3.65;;;1.20;;
25199;SDS011;33094;48.782;9.162;2023-03-09T14:57:53;2.22;;;1.23;;
25199;SDS011;33094;48.782;9.162;2023-03-09T15:02:53;4.07;;;1.20;;
25199;SDS011;33094;48.782;9.162;2023-03-09T15:08:22;7.70;;;1.35;;
25199;SDS011;33094;48.782;9.162;2023-03-09T15:10:48;6.18;;;1.30;;
25199;SDS011;33094;48.782;9.162;2023-03-09T15:13:14;10.70;;;1.70;;
25199;SDS011;33094;48.782;9.162;2023-03-09T15:15:39;6.38;;;1.48;;
25199;SDS011;33094;48.782;9.162;2023-03-09T15:18:11;4.20;;;1.05;;
25199;SDS011;33094;48.782;9.162;2023-03-09T15:20:36;3.28;;;1.23;;
25199;SDS011;33094;48.782;9.162;2023-03-09T15:23:02;10.13;;;1.73;;
25199;SDS011;33094;48.782;9.162;2023-03-09T15:25:28;3.95;;;1.27;;
25199;SDS011;33094;48.782;9.162;2023-03-09T15:27:54;6.13;;;1.50;;
25199;SDS011;33094;48.782;9.162;2023-03-09T15:30:19;7.47;;;1.35;;
25199;SDS011;33094;48.782;9.162;2023-03-09T15:32:47;4.72;;;1.23;;
25199;SDS011;33094;48.782;9.162;2023-03-09T15:35:20;4.80;;;1.45;;
25199;SDS011;33094;48.782;9.162;2023-03-09T15:37:46;4.93;;;0.90;;
25199;SDS011;33094;48.782;9.162;2023-03-09T15:40:18;8.20;;;1.75;;
25199;SDS011;33094;48.782;9.162;2023-03-09T15:42:44;4.90;;;1.27;;
25199;SDS011;33094;48.782;9.162;2023-03-09T15:45:11;7.72;;;1.65;;
25199;SDS011;33094;48.782;9.162;2023-03-09T15:47:40;5.72;;;1.08;;
25199;SDS011;33094;48.782;9.162;2023-03-09T15:50:07;7.32;;;1.65;;
25199;SDS011;33094;48.782;9.162;2023-03-09T15:52:34;7.18;;;1.30;;
25199;SDS011;33094;48.782;9.162;2023-03-09T15:55:01;6.15;;;1.65;;
25199;SDS011;33094;48.782;9.162;2023-03-09T15:57:28;7.43;;;2.08;;
25199;SDS011;33094;48.782;9.162;2023-03-09T15:59:56;8.95;;;2.13;;
25199;SDS011;33094;48.782;9.162;2023-03-09T16:02:23;7.85;;;1.48;;
25199;SDS011;33094;48.782;9.162;2023-03-09T16:04:49;7.30;;;2.10;;
25199;SDS011;33094;48.782;9.162;2023-03-09T16:07:15;6.75;;;1.52;;
25199;SDS011;33094;48.782;9.162;2023-03-09T16:09:41;11.18;;;1.75;;
25199;SDS011;33094;48.782;9.162;2023-03-09T16:12:07;9.50;;;2.28;;
25199;SDS011;33094;48.782;9.162;2023-03-09T16:14:33;6.57;;;1.93;;
25199;SDS011;33094;48.782;9.162;2023-03-09T16:16:59;10.40;;;1.90;;
25199;SDS011;33094;48.782;9.162;2023-03-09T16:19:25;8.23;;;2.50;;
25199;SDS011;33094;48.782;9.162;2023-03-09T16:21:50;11.45;;;2.00;;
25199;SDS011;33094;48.782;9.162;2023-03-09T16:24:16;8.77;;;1.63;;
25199;SDS011;33094;48.782;9.162;2023-03-09T16:26:44;9.02;;;1.63;;
25199;SDS011;33094;48.782;9.162;2023-03-09T16:29:09;8.68;;;1.77;;
25199;SDS011;33094;48.782;9.162;2023-03-09T16:31:35;8.75;;;1.48;;
25199;SDS011;33094;48.782;9.162;2023-03-09T16:34:01;7.93;;;2.05;;
25199;SDS011;33094;48.782;9.162;2023-03-09T16:36:27;10.05;;;2.45;;
25199;SDS011;33094;48.782;9.162;2023-03-09T16:38:53;11.10;;;2.22;;
25199;SDS011;33094;48.782;9.162;2023-03-09T16:41:22;12.02;;;2.63;;
25199;SDS011;33094;48.782;9.162;2023-03-09T16:43:48;11.13;;;2.58;;
25199;SDS011;33094;48.782;9.162;2023-03-09T16:46:17;9.75;;;1.92;;
25199;SDS011;33094;48.782;9.162;2023-03-09T16:48:44;17.75;;;3.05;;
25199;SDS011;33094;48.782;9.162;2023-03-09T16:51:10;17.23;;;3.23;;
25199;SDS011;33094;48.782;9.162;2023-03-09T16:53:37;11.43;;;2.33;;
25199;SDS011;33094;48.782;9.162;2023-03-09T16:56:06;17.95;;;4.43;;
25199;SDS011;33094;48.782;9.162;2023-03-09T16:58:33;16.42;;;3.25;;
25199;SDS011;33094;48.782;9.162;2023-03-09T17:01:00;10.32;;;3.00;;
25199;SDS011;33094;48.782;9.162;2023-03-09T17:03:26;20.53;;;3.53;;
25199;SDS011;33094;48.782;9.162;2023-03-09T17:05:52;18.20;;;3.78;;
25199;SDS011;33094;48.782;9.162;2023-03-09T17:08:19;13.23;;;2.65;;
25199;SDS011;33094;48.782;9.162;2023-03-09T17:10:46;12.63;;;2.72;;
25199;SDS011;33094;48.782;9.162;2023-03-09T17:13:12;6.80;;;2.05;;
25199;SDS011;33094;48.782;9.162;2023-03-09T17:15:38;14.15;;;2.60;;
25199;SDS011;33094;48.782;9.162;2023-03-09T17:18:05;12.88;;;2.67;;
25199;SDS011;33094;48.782;9.162;2023-03-09T17:20:31;13.23;;;2.30;;
25199;SDS011;33094;48.782;9.162;2023-03-09T17:22:56;14.38;;;2.83;;
25199;SDS011;33094;48.782;9.162;2023-03-09T17:25:23;11.75;;;2.83;;
25199;SDS011;33094;48.782;9.162;2023-03-09T17:27:50;6.65;;;2.35;;
25199;SDS011;33094;48.782;9.162;2023-03-09T17:30:17;10.77;;;3.00;;
25199;SDS011;33094;48.782;9.162;2023-03-09T17:32:45;9.85;;;3.00;;
25199;SDS011;33094;48.782;9.162;2023-03-09T17:35:11;17.42;;;5.15;;
25199;SDS011;33094;48.782;9.162;2023-03-09T17:37:37;19.88;;;5.38;;
25199;SDS011;33094;48.782;9.162;2023-03-09T17:40:08;14.20;;;4.70;;
25199;SDS011;33094;48.782;9.162;2023-03-09T17:42:37;15.70;;;4.68;;
25199;SDS011;33094;48.782;9.162;2023-03-09T17:45:04;16.42;;;4.45;;
25199;SDS011;33094;48.782;9.162;2023-03-09T17:47:31;31.90;;;6.30;;
25199;SDS011;33094;48.782;9.162;2023-03-09T17:49:57;24.33;;;7.00;;
25199;SDS011;33094;48.782;9.162;2023-03-09T17:52:24;16.20;;;6.28;;
25199;SDS011;33094;48.782;9.162;2023-03-09T17:57:16;13.70;;;3.90;;
25199;SDS011;33094;48.782;9.162;2023-03-09T17:59:42;12.75;;;3.97;;
25199;SDS011;33094;48.782;9.162;2023-03-09T18:02:09;15.65;;;3.85;;
25199;SDS011;33094;48.782;9.162;2023-03-09T18:04:37;16.05;;;3.80;;
25199;SDS011;33094;48.782;9.162;2023-03-09T18:07:02;9.18;;;3.17;;
25199;SDS011;33094;48.782;9.162;2023-03-09T18:09:28;15.60;;;3.47;;
25199;SDS011;33094;48.782;9.162;2023-03-09T18:11:54;8.35;;;2.80;;
25199;SDS011;33094;48.782;9.162;2023-03-09T18:14:20;12.07;;;2.67;;
25199;SDS011;33094;48.782;9.162;2023-03-09T18:16:45;11.68;;;3.55;;
25199;SDS011;33094;48.782;9.162;2023-03-09T18:19:11;11.07;;;2.95;;
25199;SDS011;33094;48.782;9.162;2023-03-09T18:21:37;14.35;;;3.35;;
25199;SDS011;33094;48.782;9.162;2023-03-09T18:24:03;10.82;;;3.50;;
25199;SDS011;33094;48.782;9.162;2023-03-09T18:26:31;12.93;;;3.25;;
25199;SDS011;33094;48.782;9.162;2023-03-09T18:28:59;17.05;;;4.28;;
25199;SDS011;33094;48.782;9.162;2023-03-09T18:31:25;33.60;;;14.43;;
25199;SDS011;33094;48.782;9.162;2023-03-09T18:33:52;13.10;;;4.20;;
25199;SDS011;33094;48.782;9.162;2023-03-09T18:36:18;19.73;;;3.90;;
25199;SDS011;33094;48.782;9.162;2023-03-09T18:38:44;14.13;;;3.78;;
25199;SDS011;33094;48.782;9.162;2023-03-09T18:41:11;14.10;;;5.20;;
25199;SDS011;33094;48.782;9.162;2023-03-09T18:43:37;11.18;;;3.60;;
25199;SDS011;33094;48.782;9.162;2023-03-09T18:46:03;15.98;;;3.58;;
25199;SDS011;33094;48.782;9.162;2023-03-09T18:48:30;18.73;;;3.80;;
25199;SDS011;33094;48.782;9.162;2023-03-09T18:50:56;16.80;;;4.20;;
25199;SDS011;33094;48.782;9.162;2023-03-09T18:53:22;15.32;;;4.25;;
25199;SDS011;33094;48.782;9.162;2023-03-09T18:58:21;17.10;;;3.88;;
25199;SDS011;33094;48.782;9.162;2023-03-09T19:00:47;11.50;;;3.90;;
25199;SDS011;33094;48.782;9.162;2023-03-09T19:03:13;12.13;;;3.78;;
25199;SDS011;33094;48.782;9.162;2023-03-09T19:05:39;21.45;;;6.28;;
25199;SDS011;33094;48.782;9.162;2023-03-09T19:08:06;12.70;;;4.47;;
25199;SDS011;33094;48.782;9.162;2023-03-09T19:10:31;19.67;;;5.22;;
25199;SDS011;33094;48.782;9.162;2023-03-09T19:13:00;14.23;;;4.85;;
25199;SDS011;33094;48.782;9.162;2023-03-09T19:15:29;19.08;;;4.75;;
25199;SDS011;33094;48.782;9.162;2023-03-09T19:17:55;12.43;;;4.05;;
25199;SDS011;33094;48.782;9.162;2023-03-09T19:20:20;18.45;;;4.88;;
25199;SDS011;33094;48.782;9.162;2023-03-09T19:22:46;13.00;;;4.25;;
25199;SDS011;33094;48.782;9.162;2023-03-09T19:25:12;16.42;;;3.38;;
25199;SDS011;33094;48.782;9.162;2023-03-09T19:27:44;10.13;;;4.15;;
25199;SDS011;33094;48.782;9.162;2023-03-09T19:30:13;12.80;;;4.45;;
25199;SDS011;33094;48.782;9.162;2023-03-09T19:32:39;13.90;;;4.00;;
25199;SDS011;33094;48.782;9.162;2023-03-09T19:35:05;12.98;;;3.97;;
25199;SDS011;33094;48.782;9.162;2023-03-09T19:37:31;13.27;;;3.85;;
25199;SDS011;33094;48.782;9.162;2023-03-09T19:39:57;15.20;;;5.38;;
25199;SDS011;33094;48.782;9.162;2023-03-09T19:42:23;13.38;;;4.15;;
25199;SDS011;33094;48.782;9.162;2023-03-09T19:44:49;19.20;;;4.82;;
25199;SDS011;33094;48.782;9.162;2023-03-09T19:47:18;19.35;;;4.80;;
25199;SDS011;33094;48.782;9.162;2023-03-09T19:49:44;14.25;;;4.72;;
25199;SDS011;33094;48.782;9.162;2023-03-09T19:52:13;16.33;;;4.40;;
25199;SDS011;33094;48.782;9.162;2023-03-09T19:54:39;11.05;;;4.68;;
25199;SDS011;33094;48.782;9.162;2023-03-09T19:57:07;14.30;;;4.40;;
25199;SDS011;33094;48.782;9.162;2023-03-09T19:59:33;14.10;;;4.00;;
25199;SDS011;33094;48.782;9.162;2023-03-09T20:01:59;15.60;;;4.20;;
25199;SDS011;33094;48.782;9.162;2023-03-09T20:04:25;13.65;;;3.80;;
25199;SDS011;33094;48.782;9.162;2023-03-09T20:06:52;16.25;;;4.13;;
25199;SDS011;33094;48.782;9.162;2023-03-09T20:09:20;13.40;;;3.17;;
25199;SDS011;33094;48.782;9.162;2023-03-09T20:11:48;12.98;;;4.68;;
25199;SDS011;33094;48.782;9.162;2023-03-09T20:14:14;12.75;;;3.75;;
25199;SDS011;33094;48.782;9.162;2023-03-09T20:16:40;16.73;;;3.90;;
25199;SDS011;33094;48.782;9.162;2023-03-09T20:19:07;14.20;;;3.50;;
25199;SDS011;33094;48.782;9.162;2023-03-09T20:21:36;12.35;;;3.97;;
25199;SDS011;33094;48.782;9.162;2023-03-09T20:24:02;9.85;;;3.67;;
25199;SDS011;33094;48.782;9.162;2023-03-09T20:26:31;10.52;;;3.70;;
25199;SDS011;33094;48.782;9.162;2023-03-09T20:28:59;14.70;;;4.00;;
25199;SDS011;33094;48.782;9.162;2023-03-09T20:34:09;13.38;;;3.88;;
25199;SDS011;33094;48.782;9.162;2023-03-09T20:36:37;8.15;;;3.15;;
25199;SDS011;33094;48.782;9.162;2023-03-09T20:39:03;13.57;;;3.83;;
25199;SDS011;33094;48.782;9.162;2023-03-09T20:41:30;14.07;;;3.50;;
25199;SDS011;33094;48.782;9.162;2023-03-09T20:44:03;9.55;;;2.38;;
25199;SDS011;33094;48.782;9.162;2023-03-09T20:46:30;8.15;;;2.70;;
25199;SDS011;33094;48.782;9.162;2023-03-09T20:48:57;11.93;;;3.58;;
25199;SDS011;33094;48.782;9.162;2023-03-09T20:51:24;15.88;;;3.80;;
25199;SDS011;33094;48.782;9.162;2023-03-09T20:53:51;11.30;;;3.28;;
25199;SDS011;33094;48.782;9.162;2023-03-09T20:56:30;16.80;;;4.50;;
25199;SDS011;33094;48.782;9.162;2023-03-09T20:58:59;10.60;;;2.88;;
25199;SDS011;33094;48.782;9.162;2023-03-09T21:01:28;9.82;;;2.80;;
25199;SDS011;33094;48.782;9.162;2023-03-09T21:03:54;8.57;;;2.88;;
25199;SDS011;33094;48.782;9.162;2023-03-09T21:06:20;10.83;;;3.03;;
25199;SDS011;33094;48.782;9.162;2023-03-09T21:08:49;5.05;;;2.13;;
25199;SDS011;33094;48.782;9.162;2023-03-09T21:11:16;5.60;;;2.50;;
25199;SDS011;33094;48.782;9.162;2023-03-09T21:13:46;9.52;;;2.75;;
25199;SDS011;33094;48.782;9.162;2023-03-09T21:21:19;7.88;;;2.50;;
25199;SDS011;33094;48.782;9.162;2023-03-09T21:23:49;7.15;;;1.52;;
25199;SDS011;33094;48.782;9.162;2023-03-09T21:26:18;3.33;;;1.20;;
25199;SDS011;33094;48.782;9.162;2023-03-09T21:28:47;4.63;;;1.17;;
25199;SDS011;33094;48.782;9.162;2023-03-09T21:31:17;2.38;;;1.40;;
25199;SDS011;33094;48.782;9.162;2023-03-09T21:36:18;3.30;;;1.00;;
25199;SDS011;33094;48.782;9.162;2023-03-09T21:38:47;7.15;;;1.80;;
25199;SDS011;33094;48.782;9.162;2023-03-09T21:41:17;6.13;;;2.15;;
25199;SDS011;33094;48.782;9.162;2023-03-09T21:43:43;4.90;;;1.75;;
25199;SDS011;33094;48.782;9.162;2023-03-09T21:46:10;6.03;;;1.83;;
25199;SDS011;33094;48.782;9.162;2023-03-09T21:51:06;7.68;;;1.73;;
25199;SDS011;33094;48.782;9.162;2023-03-09T21:53:36;4.53;;;1.90;;
25199;SDS011;33094;48.782;9.162;2023-03-09T21:56:02;10.65;;;2.00;;
25199;SDS011;33094;48.782;9.162;2023-03-09T21:58:29;5.38;;;2.22;;
25199;SDS011;33094;48.782;9.162;2023-03-09T22:00:56;6.25;;;1.80;;
25199;SDS011;33094;48.782;9.162;2023-03-09T22:03:22;8.45;;;2.53;;
25199;SDS011;33094;48.782;9.162;2023-03-09T22:05:48;3.50;;;1.63;;
25199;SDS011;33094;48.782;9.162;2023-03-09T22:08:14;11.55;;;1.83;;
25199;SDS011;33094;48.782;9.162;2023-03-09T22:10:40;7.28;;;1.90;;
25199;SDS011;33094;48.782;9.162;2023-03-09T22:13:07;9.77;;;1.67;;
25199;SDS011;33094;48.782;9.162;2023-03-09T22:18:00;5.78;;;2.00;;
25199;SDS011;33094;48.782;9.162;2023-03-09T22:23:01;8.48;;;2.47;;
25199;SDS011;33094;48.782;9.162;2023-03-09T22:25:27;6.03;;;1.92;;
25199;SDS011;33094;48.782;9.162;2023-03-09T22:27:53;3.05;;;1.70;;
25199;SDS011;33094;48.782;9.162;2023-03-09T22:30:21;5.75;;;2.13;;
25199;SDS011;33094;48.782;9.162;2023-03-09T22:32:49;6.78;;;1.63;;
25199;SDS011;33094;48.782;9.162;2023-03-09T22:35:15;6.82;;;1.75;;
25199;SDS011;33094;48.782;9.162;2023-03-09T22:37:41;3.35;;;1.88;;
25199;SDS011;33094;48.782;9.162;2023-03-09T22:40:07;5.40;;;1.95;;
25199;SDS011;33094;48.782;9.162;2023-03-09T22:42:36;3.28;;;1.90;;
25199;SDS011;33094;48.782;9.162;2023-03-09T22:45:03;8.80;;;2.47;;
25199;SDS011;33094;48.782;9.162;2023-03-09T22:47:29;3.28;;;1.42;;
25199;SDS011;33094;48.782;9.162;2023-03-09T22:49:56;6.57;;;1.83;;
25199;SDS011;33094;48.782;9.162;2023-03-09T22:52:22;9.67;;;2.23;;
25199;SDS011;33094;48.782;9.162;2023-03-09T22:54:50;8.90;;;2.13;;
25199;SDS011;33094;48.782;9.162;2023-03-09T22:57:16;8.98;;;1.98;;
25199;SDS011;33094;48.782;9.162;2023-03-09T22:59:42;5.70;;;2.05;;
25199;SDS011;33094;48.782;9.162;2023-03-09T23:02:10;3.53;;;1.73;;
25199;SDS011;33094;48.782;9.162;2023-03-09T23:04:36;11.15;;;2.45;;
25199;SDS011;33094;48.782;9.162;2023-03-09T23:07:03;11.60;;;2.50;;
25199;SDS011;33094;48.782;9.162;2023-03-09T23:09:31;5.40;;;2.05;;
25199;SDS011;33094;48.782;9.162;2023-03-09T23:12:00;5.65;;;1.77;;
25199;SDS011;33094;48.782;9.162;2023-03-09T23:14:26;5.70;;;1.70;;
25199;SDS011;33094;48.782;9.162;2023-03-09T23:16:55;10.45;;;1.90;;
25199;SDS011;33094;48.782;9.162;2023-03-09T23:19:22;11.35;;;1.88;;
25199;SDS011;33094;48.782;9.162;2023-03-09T23:21:48;10.30;;;2.05;;
25199;SDS011;33094;48.782;9.162;2023-03-09T23:24:14;3.07;;;1.70;;
25199;SDS011;33094;48.782;9.162;2023-03-09T23:26:40;7.57;;;2.10;;
25199;SDS011;33094;48.782;9.162;2023-03-09T23:29:06;7.00;;;1.92;;
25199;SDS011;33094;48.782;9.162;2023-03-09T23:31:34;6.35;;;2.35;;
25199;SDS011;33094;48.782;9.162;2023-03-09T23:34:16;4.82;;;1.90;;
25199;SDS011;33094;48.782;9.162;2023-03-09T23:36:45;5.97;;;1.55;;
25199;SDS011;33094;48.782;9.162;2023-03-09T23:39:10;6.43;;;2.60;;
25199;SDS011;33094;48.782;9.162;2023-03-09T23:41:39;8.48;;;2.03;;
25199;SDS011;33094;48.782;9.162;2023-03-09T23:44:07;6.82;;;1.67;;
25199;SDS011;33094;48.782;9.162;2023-03-09T23:46:33;4.93;;;2.20;;
25199;SDS011;33094;48.782;9.162;2023-03-09T23:49:01;8.02;;;2.40;;
25199;SDS011;33094;48.782;9.162;2023-03-09T23:51:27;7.18;;;1.83;;
25199;SDS011;33094;48.782;9.162;2023-03-09T23:53:53;8.55;;;2.15;;
25199;SDS011;33094;48.782;9.162;2023-03-09T23:56:19;7.13;;;2.15;;
25199;SDS011;33094;48.782;9.162;2023-03-09T23:58:46;5.43;;;1.63;;
